Terminal Aerodrome Forecast
Issued by NWS

Home | Current Version | Previous Version | Graphics & Text | Print | Product List | Glossary On
Versions: 1 2 3 4 5 6 7 8 9 10 11 12 13 14 15 16 17 18 19 20 21 22 23 24
547
FTUS43 KABR 062328
TAFATY
TAF
KATY 062328Z 0700/0724 19010KT P6SM OVC100
     FM070400 28018G26KT P6SM BKN150
     FM071400 30021G29KT P6SM OVC050
     FM072000 33030G40KT 1/2SM -SN BLSN OVC025=

USA.gov is the U.S. government's official web portal to all federal, state and local government web resources and services.